Time;durP1;ratioP1;P1;durP2;ratioP2;P2;SDS_P1;SDS_P2;PMS_P1;PMS_P2;Temp;Humidity;BMP_temperature;BMP_pressure;BME280_temperature;BME280_humidity;BME280_pressure;Samples;Min_cycle;Max_cycle;Signal;HPM_P1;HPM_P2
2021/05/31 00:01:38;;;;;;;3.72;2.50;;;11.60;54.30;;;;;;5015868;28;20065;-65
2021/05/31 00:04:04;;;;;;;2.22;1.95;;;11.60;54.20;;;;;;5017346;28;20576;-65
2021/05/31 00:06:56;;;;;;;3.75;2.15;;;11.60;54.10;;;;;;5020485;28;20073;-65
2021/05/31 00:09:21;;;;;;;3.38;2.10;;;11.60;54.80;;;;;;5019371;28;20034;-67
2021/05/31 00:11:52;;;;;;;2.35;2.10;;;11.50;54.30;;;;;;5014357;28;20121;-66
2021/05/31 00:14:21;;;;;;;2.20;2.00;;;11.50;54.60;;;;;;5013693;28;20061;-65
2021/05/31 00:16:51;;;;;;;2.60;2.20;;;11.50;54.70;;;;;;5013429;28;20116;-65
2021/05/31 00:19:23;;;;;;;6.63;2.35;;;11.40;54.90;;;;;;5014006;28;20964;-65
2021/05/31 00:21:53;;;;;;;3.25;2.30;;;11.40;55.00;;;;;;5015730;28;20103;-66
2021/05/31 00:24:20;;;;;;;5.43;2.47;;;11.40;54.90;;;;;;5011995;28;20054;-66
2021/05/31 00:26:46;;;;;;;2.65;2.22;;;11.40;54.70;;;;;;5017291;28;20523;-66
2021/05/31 00:29:20;;;;;;;4.43;2.50;;;11.30;54.60;;;;;;5015808;28;20041;-65
2021/05/31 00:31:52;;;;;;;4.28;2.15;;;11.30;54.70;;;;;;5012794;28;20034;-65
2021/05/31 00:34:22;;;;;;;2.78;2.22;;;11.30;54.60;;;;;;5014644;28;20042;-66
2021/05/31 00:36:51;;;;;;;2.47;2.08;;;11.30;54.50;;;;;;5017144;28;21421;-65
2021/05/31 00:39:19;;;;;;;4.05;2.03;;;11.20;54.50;;;;;;5014086;28;20057;-66
2021/05/31 00:41:50;;;;;;;3.50;2.00;;;11.30;54.60;;;;;;5014041;28;20633;-66
2021/05/31 00:44:22;;;;;;;4.38;2.00;;;11.20;54.60;;;;;;5013753;28;20045;-66
2021/05/31 00:46:53;;;;;;;2.80;1.90;;;11.20;54.70;;;;;;5014742;28;20456;-65
2021/05/31 00:49:26;;;;;;;3.17;2.00;;;11.20;54.80;;;;;;5015449;28;20077;-67
2021/05/31 00:52:00;;;;;;;2.78;1.90;;;11.10;54.90;;;;;;5011929;28;20065;-65
2021/05/31 00:54:30;;;;;;;3.55;2.30;;;11.10;55.00;;;;;;5012193;28;20041;-65
2021/05/31 00:57:01;;;;;;;2.30;2.10;;;11.10;55.00;;;;;;5015670;28;20061;-65
2021/05/31 00:59:26;;;;;;;3.30;2.15;;;11.00;55.50;;;;;;5017051;28;20030;-65
2021/05/31 01:01:59;;;;;;;3.55;2.15;;;11.00;55.40;;;;;;5012733;28;20041;-66
2021/05/31 01:04:27;;;;;;;2.40;2.15;;;10.90;55.80;;;;;;5026550;28;20046;-66
2021/05/31 01:07:13;;;;;;;2.92;2.28;;;10.80;56.00;;;;;;5015072;28;20421;-65
2021/05/31 01:10:05;;;;;;;3.65;2.20;;;10.70;56.90;;;;;;5015142;28;20541;-65
2021/05/31 01:12:56;;;;;;;3.33;2.20;;;10.60;56.50;;;;;;5009004;28;20046;-67
2021/05/31 01:15:41;;;;;;;3.45;2.15;;;10.50;57.10;;;;;;5012884;28;20029;-66
2021/05/31 01:18:15;;;;;;;2.10;1.88;;;10.40;56.90;;;;;;5013343;28;20056;-65
2021/05/31 01:20:57;;;;;;;3.00;2.40;;;10.40;56.30;;;;;;5009544;28;20030;-65
2021/05/31 01:23:29;;;;;;;4.72;2.33;;;10.40;56.50;;;;;;5015442;28;20030;-65
2021/05/31 01:26:32;;;;;;;2.53;2.20;;;10.40;56.60;;;;;;5012438;28;20501;-66
2021/05/31 01:29:11;;;;;;;4.43;2.40;;;10.40;56.80;;;;;;5006443;28;20050;-65
2021/05/31 01:31:51;;;;;;;3.42;2.70;;;10.30;56.70;;;;;;5014068;28;20046;-66
2021/05/31 01:34:24;;;;;;;4.63;3.13;;;10.40;56.90;;;;;;5014954;28;20048;-65
2021/05/31 01:36:58;;;;;;;4.35;3.00;;;10.30;56.60;;;;;;5031292;28;20396;-65
2021/05/31 01:39:29;;;;;;;4.47;2.95;;;10.20;57.30;;;;;;5017429;28;20124;-65
2021/05/31 01:41:57;;;;;;;3.45;2.40;;;10.10;56.70;;;;;;5015734;28;20038;-65
2021/05/31 01:44:26;;;;;;;3.00;2.28;;;10.00;56.90;;;;;;5009061;28;20030;-65
2021/05/31 01:46:56;;;;;;;4.70;2.25;;;9.90;57.40;;;;;;5013763;28;20048;-65
2021/05/31 01:49:27;;;;;;;4.65;2.40;;;9.90;57.70;;;;;;5015425;28;20061;-65
2021/05/31 01:51:59;;;;;;;3.72;2.70;;;9.80;57.60;;;;;;5010412;28;20026;-65
2021/05/31 01:54:32;;;;;;;4.30;2.60;;;9.80;57.90;;;;;;5011541;28;20045;-65
2021/05/31 01:57:05;;;;;;;4.18;2.80;;;9.70;58.00;;;;;;5012227;28;20037;-65
2021/05/31 01:59:35;;;;;;;3.22;2.58;;;9.70;58.10;;;;;;5013267;28;20417;-66
2021/05/31 02:02:03;;;;;;;4.38;2.63;;;9.70;58.10;;;;;;5012740;28;20034;-65
2021/05/31 02:04:31;;;;;;;3.67;2.70;;;9.60;57.90;;;;;;5014426;28;20041;-66
2021/05/31 02:07:01;;;;;;;3.20;2.78;;;9.60;58.10;;;;;;5013565;28;20053;-65
2021/05/31 02:09:26;;;;;;;4.13;2.97;;;9.70;58.40;;;;;;5014844;28;20034;-65
2021/05/31 02:12:16;;;;;;;3.50;2.78;;;9.70;58.20;;;;;;5009426;28;20386;-66
2021/05/31 02:14:53;;;;;;;3.63;2.78;;;9.70;58.90;;;;;;5015393;28;20048;-65
2021/05/31 02:17:43;;;;;;;4.47;2.72;;;9.60;58.50;;;;;;5015490;28;20409;-65
2021/05/31 02:20:16;;;;;;;4.90;2.65;;;9.60;58.30;;;;;;5019430;28;20030;-66
2021/05/31 02:22:46;;;;;;;4.55;2.67;;;9.60;58.20;;;;;;5016804;28;20044;-65
2021/05/31 02:25:18;;;;;;;4.68;2.60;;;9.60;58.20;;;;;;5019627;28;20531;-66
2021/05/31 02:27:48;;;;;;;4.20;2.80;;;9.60;58.10;;;;;;5021128;28;20451;-66
2021/05/31 02:30:15;;;;;;;3.30;2.58;;;9.70;58.20;;;;;;5019714;28;20033;-66
2021/05/31 02:32:59;;;;;;;3.38;2.83;;;9.60;58.20;;;;;;5018288;28;20045;-65
2021/05/31 02:35:29;;;;;;;3.10;2.70;;;9.70;59.00;;;;;;5016308;28;20432;-65
2021/05/31 02:38:02;;;;;;;3.63;2.42;;;9.60;58.30;;;;;;5016532;28;20296;-66
2021/05/31 02:40:35;;;;;;;4.20;2.67;;;9.70;58.60;;;;;;5019764;28;20037;-65
2021/05/31 02:43:06;;;;;;;3.97;2.70;;;9.70;58.60;;;;;;5018643;28;20038;-66
2021/05/31 02:45:34;;;;;;;4.18;2.80;;;9.60;58.60;;;;;;5018003;28;20120;-66
2021/05/31 02:48:04;;;;;;;3.72;3.22;;;9.60;58.50;;;;;;5017091;28;20042;-65
2021/05/31 02:50:33;;;;;;;4.95;3.00;;;9.60;58.50;;;;;;5013519;28;20029;-65
2021/05/31 02:53:02;;;;;;;5.40;3.03;;;9.60;58.50;;;;;;5019067;28;20447;-66
2021/05/31 02:55:33;;;;;;;4.20;2.70;;;9.60;58.90;;;;;;5018348;28;20030;-65
2021/05/31 02:58:03;;;;;;;5.95;2.90;;;9.60;59.00;;;;;;5020219;28;20038;-65
2021/05/31 03:00:32;;;;;;;4.43;3.25;;;9.60;58.90;;;;;;5016959;28;20034;-65
2021/05/31 03:03:02;;;;;;;4.63;2.97;;;9.60;59.00;;;;;;5018943;28;20053;-66
2021/05/31 03:05:29;;;;;;;6.00;2.92;;;9.60;58.80;;;;;;5013559;28;21801;-66
2021/05/31 03:07:59;;;;;;;7.68;3.10;;;9.60;58.80;;;;;;5018649;28;20829;-65
2021/05/31 03:10:26;;;;;;;5.43;2.88;;;9.50;58.90;;;;;;5015597;28;20048;-66
2021/05/31 03:12:54;;;;;;;4.57;3.33;;;9.50;58.90;;;;;;5019584;28;20116;-65
2021/05/31 03:15:21;;;;;;;6.03;3.30;;;9.50;59.00;;;;;;5018402;28;20088;-65
2021/05/31 03:17:53;;;;;;;7.35;3.28;;;9.50;59.00;;;;;;5019711;28;20509;-66
2021/05/31 03:20:29;;;;;;;6.20;3.33;;;9.40;59.00;;;;;;5015758;28;20033;-64
2021/05/31 03:22:57;;;;;;;5.53;3.35;;;9.40;59.70;;;;;;5016814;28;20030;-65
2021/05/31 03:25:28;;;;;;;5.60;3.10;;;9.40;59.20;;;;;;5017509;28;20543;-65
2021/05/31 03:27:58;;;;;;;5.97;3.40;;;9.40;59.50;;;;;;5015718;28;20041;-65
2021/05/31 03:30:26;;;;;;;3.92;3.15;;;9.40;59.50;;;;;;5017265;28;20120;-65
2021/05/31 03:32:56;;;;;;;6.80;3.30;;;9.40;59.50;;;;;;5016434;28;20493;-66
2021/05/31 03:35:26;;;;;;;5.00;2.90;;;9.40;59.60;;;;;;5016478;28;20033;-66
2021/05/31 03:37:57;;;;;;;5.53;3.00;;;9.40;59.70;;;;;;5016270;28;20108;-66
2021/05/31 03:40:25;;;;;;;4.30;2.72;;;9.40;59.60;;;;;;5020058;28;20025;-66
2021/05/31 03:42:55;;;;;;;5.35;2.80;;;9.30;59.60;;;;;;5021188;28;20030;-66
2021/05/31 03:45:26;;;;;;;3.65;2.60;;;9.30;59.80;;;;;;5014585;28;22167;-66
2021/05/31 03:47:56;;;;;;;4.47;3.05;;;9.30;59.90;;;;;;5014908;28;20068;-65
2021/05/31 03:50:22;;;;;;;4.88;2.78;;;9.30;60.50;;;;;;5014022;28;20030;-66
2021/05/31 03:52:52;;;;;;;5.78;3.20;;;9.30;59.80;;;;;;5014033;28;20037;-65
2021/05/31 03:55:23;;;;;;;3.53;3.00;;;9.30;59.90;;;;;;5019264;28;20112;-65
2021/05/31 03:57:50;;;;;;;4.82;3.22;;;9.30;59.80;;;;;;5015614;28;20069;-65
2021/05/31 04:00:23;;;;;;;4.15;3.40;;;9.30;60.00;;;;;;5012737;28;20041;-66
2021/05/31 04:02:51;;;;;;;4.78;3.05;;;9.30;61.20;;;;;;5018103;28;20033;-66
2021/05/31 04:05:20;;;;;;;5.85;3.20;;;9.30;60.10;;;;;;5015977;28;20033;-65
2021/05/31 04:13:22;;;;;;;3.35;2.85;;;9.30;60.60;;;;;;5017226;28;20079;-68
2021/05/31 04:15:48;;;;;;;3.97;3.42;;;9.30;60.40;;;;;;5016220;28;20121;-69
2021/05/31 04:18:16;;;;;;;5.60;3.47;;;9.20;60.60;;;;;;5013466;28;20148;-67
2021/05/31 04:20:46;;;;;;;5.30;3.35;;;9.20;60.80;;;;;;5014466;28;20046;-69
2021/05/31 04:23:16;;;;;;;6.60;3.80;;;9.30;61.10;;;;;;5015209;28;20053;-69
2021/05/31 04:25:44;;;;;;;6.55;3.85;;;9.30;62.00;;;;;;5011621;28;20072;-66
2021/05/31 04:28:15;;;;;;;8.82;3.88;;;9.30;61.50;;;;;;5019877;28;20038;-66
2021/05/31 04:30:43;;;;;;;7.13;3.40;;;9.30;61.40;;;;;;5017671;28;20026;-66
2021/05/31 04:33:13;;;;;;;6.45;3.33;;;9.30;61.50;;;;;;5017394;28;20033;-66
2021/05/31 04:35:41;;;;;;;5.93;3.15;;;9.30;61.70;;;;;;5017785;28;20419;-66
2021/05/31 04:38:09;;;;;;;4.75;3.42;;;9.30;61.50;;;;;;5019003;28;20046;-67
2021/05/31 04:40:39;;;;;;;4.28;3.30;;;9.30;61.70;;;;;;5016966;28;20029;-65
2021/05/31 04:43:06;;;;;;;6.13;3.30;;;9.40;62.00;;;;;;5033505;28;20041;-66
2021/05/31 04:45:37;;;;;;;5.13;3.38;;;9.40;61.90;;;;;;5017662;28;20127;-66
2021/05/31 04:48:10;;;;;;;4.63;3.25;;;9.40;62.30;;;;;;5016896;28;20033;-66
2021/05/31 04:50:35;;;;;;;5.13;3.20;;;9.40;62.40;;;;;;5017150;28;20026;-67
2021/05/31 04:53:03;;;;;;;4.85;3.40;;;9.40;62.10;;;;;;5016985;28;20083;-66
2021/05/31 04:55:36;;;;;;;4.32;3.28;;;9.50;63.30;;;;;;5019154;28;20025;-69
2021/05/31 04:58:06;;;;;;;3.88;3.40;;;9.50;62.60;;;;;;5015387;28;20038;-67
2021/05/31 05:00:32;;;;;;;4.03;3.33;;;9.50;62.70;;;;;;5018017;28;20045;-66
2021/05/31 05:02:58;;;;;;;5.75;3.35;;;9.50;62.60;;;;;;5018914;28;20033;-67
2021/05/31 05:05:30;;;;;;;7.35;3.65;;;9.60;62.90;;;;;;5016203;28;20511;-66
2021/05/31 05:07:58;;;;;;;4.78;3.72;;;9.70;63.20;;;;;;5032984;28;20128;-66
2021/05/31 05:10:28;;;;;;;4.10;3.20;;;9.70;62.90;;;;;;5021500;28;20055;-66
2021/05/31 05:12:56;;;;;;;8.38;3.55;;;9.80;63.10;;;;;;5014719;28;20109;-66
2021/05/31 05:15:25;;;;;;;5.88;3.50;;;9.80;63.10;;;;;;5023980;28;20089;-67
2021/05/31 05:17:53;;;;;;;6.50;3.53;;;9.90;63.10;;;;;;5018039;28;20056;-67
2021/05/31 05:20:25;;;;;;;6.40;3.70;;;10.00;63.10;;;;;;5015918;28;20041;-67
2021/05/31 05:22:56;;;;;;;4.47;3.42;;;10.00;63.60;;;;;;5021061;28;20034;-67
2021/05/31 05:25:27;;;;;;;7.50;3.72;;;10.10;63.30;;;;;;5017362;28;20082;-65
2021/05/31 05:27:55;;;;;;;8.23;3.90;;;10.20;63.20;;;;;;5019559;28;20026;-67
2021/05/31 05:30:29;;;;;;;4.82;3.70;;;10.30;63.40;;;;;;5014377;28;20132;-67
2021/05/31 05:33:01;;;;;;;4.50;4.05;;;10.30;63.30;;;;;;5018152;28;20033;-67
2021/05/31 05:35:45;;;;;;;6.03;3.95;;;10.40;63.20;;;;;;5016745;28;20034;-67
2021/05/31 05:46:48;;;;;;;6.00;3.42;;;10.70;62.80;;;;;;5015878;28;20029;-66
2021/05/31 05:49:18;;;;;;;4.13;3.70;;;10.70;62.90;;;;;;5014684;28;20061;-67
2021/05/31 05:51:47;;;;;;;4.72;4.00;;;10.90;63.10;;;;;;5014712;28;20029;-67
2021/05/31 05:54:15;;;;;;;7.03;3.70;;;11.00;62.90;;;;;;5016158;28;20034;-67
2021/05/31 05:56:45;;;;;;;5.93;3.70;;;11.10;62.50;;;;;;5016521;28;20036;-66
2021/05/31 05:59:13;;;;;;;7.20;3.78;;;11.10;62.20;;;;;;5017777;28;20103;-67
2021/05/31 06:01:43;;;;;;;8.07;3.80;;;11.20;61.70;;;;;;5015840;28;20463;-67
2021/05/31 06:04:14;;;;;;;5.03;3.95;;;11.30;61.70;;;;;;5017520;28;20056;-67
2021/05/31 06:06:46;;;;;;;5.38;3.60;;;11.40;61.50;;;;;;5016182;28;20030;-66
2021/05/31 06:09:17;;;;;;;3.92;3.33;;;11.50;61.30;;;;;;5015292;28;20922;-67
2021/05/31 06:11:47;;;;;;;4.75;3.72;;;11.50;61.00;;;;;;5016378;28;20042;-67
2021/05/31 06:14:17;;;;;;;4.25;3.63;;;11.70;61.20;;;;;;5016573;28;20037;-67
2021/05/31 06:16:46;;;;;;;6.47;3.33;;;11.70;61.00;;;;;;5019063;28;20029;-67
2021/05/31 06:19:13;;;;;;;4.93;3.50;;;11.80;60.60;;;;;;5014091;28;20034;-67
2021/05/31 06:21:44;;;;;;;5.32;3.53;;;11.90;60.60;;;;;;5016948;28;20030;-67
2021/05/31 06:24:14;;;;;;;5.25;3.60;;;12.00;60.30;;;;;;5018356;28;20034;-67
2021/05/31 06:26:42;;;;;;;6.47;3.45;;;12.00;60.30;;;;;;5015796;28;20026;-67
2021/05/31 06:29:12;;;;;;;4.57;3.70;;;12.10;60.80;;;;;;5023770;28;20076;-66
2021/05/31 06:31:42;;;;;;;5.68;3.63;;;12.20;59.70;;;;;;5014804;28;20108;-68
2021/05/31 06:34:13;;;;;;;5.80;3.83;;;12.30;59.80;;;;;;5014256;28;20038;-67
2021/05/31 06:36:41;;;;;;;4.45;3.60;;;12.40;59.60;;;;;;5017327;28;20041;-66
2021/05/31 06:39:11;;;;;;;4.50;3.22;;;12.50;59.40;;;;;;5018444;28;20029;-67
2021/05/31 06:41:42;;;;;;;4.38;3.65;;;12.50;59.20;;;;;;5014687;28;20033;-67
2021/05/31 06:44:09;;;;;;;5.60;3.42;;;12.60;59.00;;;;;;5018679;28;20034;-67
2021/05/31 06:46:40;;;;;;;4.00;3.60;;;12.70;59.00;;;;;;5021177;28;20037;-66
2021/05/31 06:49:13;;;;;;;3.50;3.20;;;12.80;59.80;;;;;;5016306;28;20025;-66
2021/05/31 06:51:41;;;;;;;3.72;3.20;;;12.90;59.00;;;;;;5013808;28;20037;-66
2021/05/31 06:54:06;;;;;;;4.63;3.50;;;12.90;58.80;;;;;;5015771;28;20240;-67
2021/05/31 06:56:39;;;;;;;3.65;3.15;;;13.10;58.70;;;;;;5016206;28;20037;-66
2021/05/31 06:59:12;;;;;;;3.45;3.03;;;13.10;58.30;;;;;;5017881;28;20038;-67
2021/05/31 07:01:38;;;;;;;3.28;2.97;;;13.30;58.10;;;;;;5010648;28;20994;-67
2021/05/31 07:04:06;;;;;;;6.32;3.22;;;13.40;58.10;;;;;;5016779;28;20406;-67
2021/05/31 07:06:36;;;;;;;4.75;3.17;;;13.40;58.50;;;;;;5017654;28;20085;-64
2021/05/31 07:09:07;;;;;;;3.58;3.00;;;13.60;58.00;;;;;;5021248;28;20038;-67
2021/05/31 07:11:39;;;;;;;6.65;3.22;;;13.70;57.60;;;;;;5017233;28;20044;-67
2021/05/31 07:14:05;;;;;;;3.53;2.90;;;13.70;57.20;;;;;;5019176;28;20436;-65
2021/05/31 07:16:37;;;;;;;3.22;2.92;;;13.90;57.10;;;;;;5024292;28;20037;-66
2021/05/31 07:19:03;;;;;;;4.43;3.35;;;14.00;57.20;;;;;;5034839;28;20041;-67
2021/05/31 07:21:31;;;;;;;5.90;2.85;;;14.10;56.60;;;;;;5025696;28;20061;-67
2021/05/31 07:23:59;;;;;;;3.00;2.70;;;14.20;56.80;;;;;;5021198;28;20037;-67
2021/05/31 07:26:31;;;;;;;3.70;2.70;;;14.30;56.80;;;;;;5018495;28;20052;-67
2021/05/31 07:29:01;;;;;;;3.75;2.90;;;14.40;56.60;;;;;;5019634;28;20592;-66
2021/05/31 07:31:29;;;;;;;2.78;2.30;;;14.50;56.50;;;;;;5019075;28;20033;-66
2021/05/31 07:33:57;;;;;;;4.15;3.00;;;14.60;56.10;;;;;;5020527;28;20053;-67
2021/05/31 07:36:25;;;;;;;4.50;2.80;;;14.70;56.00;;;;;;5018374;28;20040;-67
2021/05/31 07:38:58;;;;;;;3.47;2.40;;;14.90;55.80;;;;;;5017823;28;20109;-67
2021/05/31 07:41:28;;;;;;;5.07;2.45;;;15.00;55.60;;;;;;5019266;28;20038;-67
2021/05/31 07:43:56;;;;;;;3.95;2.63;;;15.10;55.80;;;;;;5019146;28;20034;-67
2021/05/31 07:46:22;;;;;;;3.67;2.47;;;15.20;55.30;;;;;;5017909;28;20030;-67
2021/05/31 07:48:53;;;;;;;2.85;2.63;;;15.30;54.90;;;;;;5019839;28;20041;-67
2021/05/31 07:51:25;;;;;;;2.90;2.40;;;15.50;54.30;;;;;;5017840;28;20030;-67
2021/05/31 07:53:58;;;;;;;3.22;2.40;;;15.60;54.30;;;;;;5021233;28;20034;-67
2021/05/31 07:56:30;;;;;;;4.63;3.15;;;15.70;54.40;;;;;;5030032;28;20045;-67
2021/05/31 07:59:00;;;;;;;4.55;3.50;;;15.80;54.40;;;;;;5019420;28;20077;-68
2021/05/31 08:01:31;;;;;;;5.50;3.45;;;15.90;54.20;;;;;;5024934;28;20385;-68
2021/05/31 08:04:04;;;;;;;3.92;3.40;;;16.00;54.10;;;;;;5020728;28;20037;-68
2021/05/31 08:06:40;;;;;;;3.72;3.40;;;16.10;54.50;;;;;;5016341;28;20524;-66
2021/05/31 08:09:08;;;;;;;7.50;3.53;;;16.10;54.50;;;;;;5019510;28;20042;-68
2021/05/31 08:11:36;;;;;;;5.13;3.47;;;16.20;54.30;;;;;;5015002;28;20034;-68
2021/05/31 08:14:02;;;;;;;5.97;3.78;;;16.20;54.50;;;;;;5017888;28;20095;-68
2021/05/31 08:16:31;;;;;;;3.95;3.42;;;16.30;54.60;;;;;;5019148;28;20042;-67
2021/05/31 08:19:01;;;;;;;5.85;3.47;;;16.30;54.40;;;;;;5019701;28;20033;-67
2021/05/31 08:21:32;;;;;;;6.20;3.45;;;16.40;54.90;;;;;;5018111;28;20037;-68
2021/05/31 08:24:04;;;;;;;5.75;3.30;;;16.40;54.50;;;;;;5019630;28;20053;-68
2021/05/31 08:26:32;;;;;;;3.20;3.00;;;16.50;54.40;;;;;;5017179;28;20566;-66
2021/05/31 08:29:05;;;;;;;4.30;3.30;;;16.60;54.30;;;;;;5016765;28;20069;-67
2021/05/31 08:31:33;;;;;;;5.72;3.58;;;16.70;54.00;;;;;;5019064;28;20034;-68
2021/05/31 08:33:59;;;;;;;3.65;3.35;;;16.80;54.00;;;;;;5025324;28;20030;-67
2021/05/31 08:36:27;;;;;;;5.18;3.40;;;16.80;53.60;;;;;;5016568;28;20044;-67
2021/05/31 08:38:58;;;;;;;4.82;3.42;;;16.90;53.00;;;;;;5018455;28;20030;-68
2021/05/31 08:41:32;;;;;;;3.47;2.97;;;17.00;53.10;;;;;;5017555;28;20034;-67
2021/05/31 08:44:00;;;;;;;3.55;3.22;;;17.00;52.40;;;;;;5018302;28;20038;-67
2021/05/31 08:46:28;;;;;;;4.15;3.38;;;17.10;52.70;;;;;;5016984;28;20064;-67
2021/05/31 08:48:57;;;;;;;3.55;3.10;;;17.20;52.90;;;;;;5018086;28;20042;-68
2021/05/31 08:51:27;;;;;;;3.30;3.08;;;17.20;53.10;;;;;;5015608;28;20040;-68
2021/05/31 08:53:53;;;;;;;4.10;3.47;;;17.30;53.00;;;;;;5019915;28;20033;-67
2021/05/31 08:56:21;;;;;;;3.25;2.92;;;17.40;52.80;;;;;;5018426;28;20040;-68
2021/05/31 08:58:48;;;;;;;3.30;2.75;;;17.50;52.50;;;;;;5018243;28;20049;-67
2021/05/31 09:01:21;;;;;;;4.35;2.33;;;17.60;52.00;;;;;;5016469;28;20521;-68
2021/05/31 09:03:54;;;;;;;3.75;3.10;;;17.70;51.00;;;;;;5017288;28;20425;-68
2021/05/31 09:06:26;;;;;;;3.17;2.88;;;17.80;50.70;;;;;;5016855;28;20505;-67
2021/05/31 09:08:55;;;;;;;2.92;2.70;;;17.90;50.60;;;;;;5018696;28;20046;-68
2021/05/31 09:11:23;;;;;;;3.00;2.70;;;18.00;49.90;;;;;;5016667;28;20500;-68
2021/05/31 09:13:54;;;;;;;4.68;2.70;;;18.00;49.70;;;;;;5018959;28;21407;-68
2021/05/31 09:16:25;;;;;;;3.55;2.50;;;18.10;49.40;;;;;;5016267;28;20116;-68
2021/05/31 09:18:53;;;;;;;2.63;2.03;;;18.20;48.70;;;;;;5017238;28;20033;-68
2021/05/31 09:21:28;;;;;;;2.03;1.92;;;18.20;48.60;;;;;;5022629;28;20040;-68
2021/05/31 09:23:56;;;;;;;;;;;18.30;49.00;;;;;;5020013;28;20065;-68
2021/05/31 09:26:29;;;;;;;2.55;1.48;;;18.40;49.20;;;;;;5017553;28;19987;-68
2021/05/31 09:28:56;;;;;;;2.15;1.90;;;18.50;48.30;;;;;;5018088;28;20093;-68
2021/05/31 09:31:27;;;;;;;3.42;2.10;;;18.60;48.00;;;;;;5016802;28;20030;-68
2021/05/31 09:34:05;;;;;;;2.10;1.90;;;18.70;47.20;;;;;;5017721;28;20714;-68
2021/05/31 09:36:48;;;;;;;2.83;1.75;;;18.80;46.90;;;;;;5020983;28;20041;-67
2021/05/31 09:39:20;;;;;;;2.10;1.65;;;18.90;46.80;;;;;;5018136;28;20041;-68
2021/05/31 09:41:50;;;;;;;1.85;1.40;;;19.00;46.50;;;;;;5015654;28;20420;-67
2021/05/31 09:44:18;;;;;;;3.40;1.73;;;19.10;46.40;;;;;;5018596;28;20501;-68
2021/05/31 09:46:47;;;;;;;1.88;1.73;;;19.20;46.10;;;;;;5016794;28;20045;-69
2021/05/31 09:49:21;;;;;;;2.58;1.63;;;19.30;45.60;;;;;;5021204;28;20472;-68
2021/05/31 09:52:13;;;;;;;2.90;1.58;;;19.40;45.00;;;;;;5015591;28;20420;-68
2021/05/31 09:54:44;;;;;;;2.97;1.80;;;19.50;44.60;;;;;;5017250;28;20627;-67
2021/05/31 09:57:22;;;;;;;1.98;1.73;;;19.50;45.20;;;;;;5017431;28;20040;-68
2021/05/31 09:59:59;;;;;;;2.05;1.88;;;19.60;44.60;;;;;;5017934;28;20086;-68
2021/05/31 10:10:43;;;;;;;2.00;1.75;;;20.00;44.60;;;;;;5015038;28;20489;-68
2021/05/31 10:13:14;;;;;;;2.17;1.98;;;20.10;44.60;;;;;;5018056;28;20417;-68
2021/05/31 10:15:41;;;;;;;2.10;2.00;;;20.10;43.70;;;;;;5017912;28;20500;-67
2021/05/31 10:18:09;;;;;;;2.70;2.13;;;20.20;43.30;;;;;;5015896;28;20076;-68
2021/05/31 10:20:37;;;;;;;1.88;1.75;;;20.20;43.70;;;;;;5017415;28;20044;-68
2021/05/31 10:23:07;;;;;;;2.65;1.80;;;20.20;43.70;;;;;;5016430;28;20041;-68
2021/05/31 10:25:37;;;;;;;1.65;1.50;;;20.30;43.00;;;;;;5016974;28;20076;-68
2021/05/31 10:28:23;;;;;;;2.30;1.52;;;20.30;42.80;;;;;;5017704;28;20063;-68
2021/05/31 10:31:02;;;;;;;1.60;1.50;;;20.40;41.80;;;;;;5019520;28;20038;-68
2021/05/31 10:33:33;;;;;;;2.35;1.55;;;20.40;42.00;;;;;;5015336;28;20112;-69
2021/05/31 10:36:18;;;;;;;1.70;1.60;;;20.40;40.90;;;;;;5013945;28;20055;-69
2021/05/31 10:38:50;;;;;;;2.55;1.65;;;20.40;41.50;;;;;;5019621;28;20084;-66
2021/05/31 10:41:23;;;;;;;3.90;1.50;;;20.40;42.30;;;;;;5022268;28;20060;-68
2021/05/31 10:43:52;;;;;;;2.70;1.60;;;20.50;42.20;;;;;;5021706;28;20038;-68
2021/05/31 10:46:33;;;;;;;2.58;1.50;;;20.60;42.00;;;;;;5018959;28;21159;-68
2021/05/31 10:49:04;;;;;;;1.75;1.40;;;20.60;41.50;;;;;;5017072;28;20412;-68
2021/05/31 10:51:36;;;;;;;1.63;1.52;;;20.70;41.00;;;;;;5020621;28;20037;-68
2021/05/31 10:54:15;;;;;;;1.95;1.60;;;20.80;40.30;;;;;;5018534;28;20405;-68
2021/05/31 10:56:44;;;;;;;2.15;1.83;;;20.80;40.80;;;;;;5020862;28;20050;-67
2021/05/31 10:59:19;;;;;;;2.00;1.52;;;20.90;41.00;;;;;;5020640;28;20561;-69
2021/05/31 11:01:52;;;;;;;1.90;1.67;;;20.90;40.20;;;;;;5019136;28;20058;-68
2021/05/31 11:04:25;;;;;;;2.47;1.92;;;20.90;40.50;;;;;;5017974;28;20038;-68
2021/05/31 11:07:01;;;;;;;1.80;1.70;;;21.00;38.60;;;;;;5026407;28;20041;-68
2021/05/31 11:09:37;;;;;;;3.22;1.88;;;20.90;39.00;;;;;;5015801;28;20066;-69
2021/05/31 11:12:10;;;;;;;1.83;1.73;;;20.90;38.50;;;;;;5014609;28;20041;-69
2021/05/31 11:14:39;;;;;;;2.85;1.73;;;20.90;39.30;;;;;;5021166;28;20414;-69
2021/05/31 11:17:16;;;;;;;2.38;2.10;;;20.90;39.60;;;;;;5020522;28;20034;-68
2021/05/31 11:19:49;;;;;;;2.97;1.63;;;20.90;39.00;;;;;;5029866;28;20515;-67
2021/05/31 11:22:22;;;;;;;2.03;1.60;;;20.90;39.90;;;;;;5018179;28;20413;-68
2021/05/31 11:24:55;;;;;;;3.65;1.52;;;20.90;39.90;;;;;;5017382;28;20034;-69
2021/05/31 11:27:34;;;;;;;1.50;1.40;;;20.90;39.20;;;;;;5025600;28;20528;-68
2021/05/31 11:30:05;;;;;;;1.70;1.60;;;20.90;39.20;;;;;;5021754;28;20045;-68
2021/05/31 11:32:36;;;;;;;1.60;1.50;;;21.00;39.50;;;;;;5019670;28;20033;-68
2021/05/31 11:35:07;;;;;;;2.15;1.75;;;21.00;39.30;;;;;;5018719;28;20033;-68
2021/05/31 11:37:37;;;;;;;1.75;1.65;;;21.00;39.50;;;;;;5019646;28;20109;-67
2021/05/31 11:40:16;;;;;;;1.73;1.63;;;21.00;39.40;;;;;;5018649;28;20405;-67
2021/05/31 11:42:46;;;;;;;2.28;2.08;;;21.00;39.30;;;;;;5019090;28;22199;-68
2021/05/31 11:45:16;;;;;;;2.75;2.30;;;21.00;39.10;;;;;;5023543;28;20038;-68
2021/05/31 11:47:44;;;;;;;2.75;2.28;;;21.00;39.10;;;;;;5019779;28;20041;-68
2021/05/31 11:50:22;;;;;;;2.58;2.00;;;21.00;39.50;;;;;;5016215;28;20092;-69
2021/05/31 11:52:48;;;;;;;3.15;1.75;;;21.00;38.60;;;;;;5019628;28;20037;-68
2021/05/31 11:55:19;;;;;;;1.70;1.60;;;21.00;40.10;;;;;;5019762;28;20034;-68
2021/05/31 11:57:49;;;;;;;2.40;1.50;;;20.90;39.60;;;;;;5016782;28;20038;-68
2021/05/31 12:00:21;;;;;;;1.50;1.27;;;21.00;39.30;;;;;;5017302;28;20038;-69
2021/05/31 12:02:51;;;;;;;4.50;1.92;;;21.00;39.10;;;;;;5019846;28;20048;-68
2021/05/31 12:05:28;;;;;;;2.17;1.98;;;21.10;39.10;;;;;;5019213;28;20045;-69
2021/05/31 12:08:02;;;;;;;3.60;2.00;;;21.20;38.50;;;;;;5018492;28;20026;-68
2021/05/31 12:10:30;;;;;;;8.00;1.97;;;21.20;38.00;;;;;;5015536;28;20038;-67
2021/05/31 12:12:56;;;;;;;2.75;1.67;;;21.20;38.90;;;;;;5018401;28;20124;-68
2021/05/31 12:15:24;;;;;;;2.03;1.55;;;21.10;38.10;;;;;;5019063;28;20125;-68
2021/05/31 12:17:54;;;;;;;2.22;1.33;;;21.20;38.00;;;;;;5018481;28;20038;-67
2021/05/31 12:20:26;;;;;;;1.92;1.40;;;21.10;37.80;;;;;;5019065;28;20103;-68
2021/05/31 12:22:56;;;;;;;4.00;1.50;;;21.20;37.40;;;;;;5019710;28;20425;-68
2021/05/31 12:25:31;;;;;;;3.75;1.77;;;21.20;37.90;;;;;;5019131;28;20057;-68
2021/05/31 12:28:07;;;;;;;2.45;1.73;;;21.20;37.80;;;;;;5018643;28;20041;-68
2021/05/31 12:30:33;;;;;;;2.95;1.98;;;21.20;38.40;;;;;;5015937;28;20037;-68
2021/05/31 12:33:11;;;;;;;6.65;1.98;;;21.30;38.60;;;;;;5018752;28;20042;-68
2021/05/31 12:35:39;;;;;;;1.55;1.45;;;21.30;38.10;;;;;;5017095;28;20034;-67
2021/05/31 12:38:10;;;;;;;3.38;1.85;;;21.30;37.90;;;;;;5019774;28;20026;-68
2021/05/31 12:40:41;;;;;;;3.28;1.80;;;21.40;38.00;;;;;;5017147;28;20025;-67
2021/05/31 12:43:12;;;;;;;2.53;1.80;;;21.40;38.30;;;;;;5020243;28;20508;-68
2021/05/31 12:45:43;;;;;;;1.75;1.48;;;21.40;38.50;;;;;;5016643;28;20037;-67
2021/05/31 12:48:18;;;;;;;3.15;1.70;;;21.40;38.40;;;;;;5021982;28;20548;-68
2021/05/31 12:50:56;;;;;;;1.77;1.60;;;21.50;38.30;;;;;;5016591;28;20041;-67
2021/05/31 12:53:31;;;;;;;1.80;1.65;;;21.50;38.30;;;;;;5017544;28;20030;-67
2021/05/31 12:56:02;;;;;;;1.67;1.58;;;21.50;38.10;;;;;;5018927;28;20030;-68
2021/05/31 12:58:33;;;;;;;3.05;1.70;;;21.60;37.60;;;;;;5017726;28;20092;-68
2021/05/31 13:00:59;;;;;;;2.03;1.60;;;21.60;38.50;;;;;;5014694;28;20320;-69
2021/05/31 13:03:38;;;;;;;1.90;1.50;;;21.70;37.70;;;;;;5016697;28;20083;-68
2021/05/31 13:06:07;;;;;;;2.03;1.20;;;21.70;37.10;;;;;;5017452;28;20465;-67
2021/05/31 13:08:41;;;;;;;2.90;1.35;;;21.80;37.10;;;;;;5017068;28;20168;-68
2021/05/31 13:11:09;;;;;;;2.50;1.55;;;21.80;37.10;;;;;;5016682;28;20034;-69
2021/05/31 13:13:38;;;;;;;2.55;1.52;;;21.80;37.40;;;;;;5018628;28;20022;-69
2021/05/31 13:16:10;;;;;;;3.13;2.35;;;21.80;37.50;;;;;;5017545;28;20119;-68
2021/05/31 13:18:46;;;;;;;2.30;2.15;;;21.90;38.10;;;;;;5013848;28;20098;-69
2021/05/31 13:21:19;;;;;;;2.10;1.90;;;21.90;38.40;;;;;;5017320;28;20033;-69
2021/05/31 13:23:51;;;;;;;3.13;2.22;;;21.80;38.30;;;;;;5017464;28;20045;-68
2021/05/31 13:26:24;;;;;;;3.65;1.77;;;21.80;38.50;;;;;;5018914;28;20030;-69
2021/05/31 13:28:58;;;;;;;2.13;1.80;;;21.90;38.00;;;;;;5017595;28;20090;-67
2021/05/31 13:31:29;;;;;;;2.38;2.17;;;21.80;37.80;;;;;;5018979;28;20053;-69
2021/05/31 13:33:59;;;;;;;2.50;2.30;;;21.90;38.10;;;;;;5015850;28;20029;-69